Time;durP1;ratioP1;P1;durP2;ratioP2;P2;SDS_P1;SDS_P2;PMS_P1;PMS_P2;Temp;Humidity;BMP_temperature;BMP_pressure;BME280_temperature;BME280_humidity;BME280_pressure;Samples;Min_cycle;Max_cycle;Signal;HPM_P1;HPM_P2
2022/12/01 07:08:38;;;;;;;20.17;10.63;;;5.40;99.90;;;;;;5459710;23;20051;-78
2022/12/01 07:11:11;;;;;;;19.48;10.73;;;5.30;99.90;;;;;;4967990;28;20142;-79
2022/12/01 07:13:39;;;;;;;19.33;10.27;;;5.40;99.90;;;;;;4985067;28;20137;-78
2022/12/01 07:16:07;;;;;;;19.00;10.48;;;5.40;99.90;;;;;;4970826;28;20047;-78
2022/12/01 07:18:35;;;;;;;21.52;11.57;;;5.50;99.90;;;;;;4963350;28;20043;-78
2022/12/01 07:21:04;;;;;;;23.58;11.02;;;5.40;99.90;;;;;;4963345;28;20130;-78
2022/12/01 07:23:31;;;;;;;22.63;10.88;;;5.40;99.90;;;;;;4981776;28;20063;-79
2022/12/01 07:26:07;;;;;;;19.70;10.27;;;5.40;99.90;;;;;;4969824;28;20057;-79
2022/12/01 07:28:33;;;;;;;25.10;11.27;;;5.30;99.90;;;;;;4987821;28;20050;-79
2022/12/01 07:31:02;;;;;;;19.27;10.60;;;5.20;99.90;;;;;;4966255;28;20046;-78
2022/12/01 07:33:29;;;;;;;20.50;11.23;;;5.20;99.90;;;;;;4954063;28;20059;-78
2022/12/01 07:35:56;;;;;;;22.45;11.60;;;5.10;99.90;;;;;;4968800;28;20047;-78
2022/12/01 07:38:22;;;;;;;18.63;10.27;;;5.10;99.90;;;;;;4980716;28;20058;-78
2022/12/01 07:40:49;;;;;;;23.42;11.27;;;5.00;99.90;;;;;;4973913;28;20070;-78
2022/12/01 07:43:16;;;;;;;17.67;10.20;;;5.00;99.90;;;;;;4985059;28;20053;-78
2022/12/01 07:45:43;;;;;;;21.27;10.52;;;5.10;99.90;;;;;;4973798;28;20050;-78
2022/12/01 07:48:09;;;;;;;18.83;10.98;;;5.10;99.90;;;;;;4971651;28;20059;-78
2022/12/01 07:50:36;;;;;;;21.60;10.65;;;5.10;99.90;;;;;;4945919;28;20051;-76
2022/12/01 07:53:03;;;;;;;23.63;12.10;;;5.20;99.90;;;;;;4979392;28;20046;-78
2022/12/01 07:55:30;;;;;;;20.00;11.10;;;5.30;99.90;;;;;;4981541;28;20059;-79
2022/12/01 07:57:59;;;;;;;21.80;11.68;;;5.30;99.90;;;;;;4968708;28;20043;-80
2022/12/01 08:00:26;;;;;;;23.50;11.10;;;5.30;99.90;;;;;;4973507;28;20058;-79
2022/12/01 08:02:53;;;;;;;22.00;12.45;;;5.30;99.90;;;;;;4987873;28;20035;-80
2022/12/01 08:05:20;;;;;;;22.02;11.40;;;5.40;99.90;;;;;;4986062;28;20436;-80
2022/12/01 08:07:46;;;;;;;26.48;12.55;;;5.50;99.90;;;;;;4981951;28;20050;-79
2022/12/01 08:10:13;;;;;;;20.40;11.35;;;5.40;99.90;;;;;;4980589;28;20369;-78
2022/12/01 08:12:40;;;;;;;25.55;12.57;;;5.40;99.90;;;;;;4976637;28;20053;-77
2022/12/01 08:15:07;;;;;;;21.25;12.50;;;5.50;99.90;;;;;;4979765;28;20051;-78
2022/12/01 08:17:33;;;;;;;22.27;11.40;;;5.50;99.90;;;;;;4973553;28;20150;-78
2022/12/01 08:20:00;;;;;;;20.70;11.07;;;5.50;99.90;;;;;;4964280;28;20047;-78
2022/12/01 08:22:27;;;;;;;24.33;12.50;;;5.40;99.90;;;;;;4969631;28;20152;-78
2022/12/01 08:24:54;;;;;;;27.35;12.45;;;5.40;99.90;;;;;;4967329;28;20051;-79
2022/12/01 08:27:20;;;;;;;20.17;11.48;;;5.40;99.90;;;;;;4976349;28;20046;-78
2022/12/01 08:29:47;;;;;;;20.20;11.68;;;5.40;99.90;;;;;;4973322;28;20158;-79
2022/12/01 08:32:16;;;;;;;22.25;11.85;;;5.40;99.90;;;;;;4969161;28;20524;-79
2022/12/01 08:34:42;;;;;;;22.45;12.05;;;5.50;99.90;;;;;;4968757;28;20425;-76
2022/12/01 08:37:09;;;;;;;18.90;11.02;;;5.50;99.90;;;;;;4946614;29;20049;-79
2022/12/01 08:39:36;;;;;;;21.48;10.93;;;5.50;99.90;;;;;;4970888;28;20055;-77
2022/12/01 08:42:02;;;;;;;21.90;12.15;;;5.50;99.90;;;;;;4975363;28;20062;-78
2022/12/01 08:44:29;;;;;;;21.50;12.02;;;5.50;99.90;;;;;;4961936;28;20054;-78
2022/12/01 08:46:56;;;;;;;23.92;12.85;;;5.50;99.90;;;;;;4974768;28;20059;-78
2022/12/01 08:49:23;;;;;;;27.30;13.55;;;5.50;99.90;;;;;;4970830;28;20114;-77
2022/12/01 08:51:49;;;;;;;24.95;13.75;;;5.40;99.90;;;;;;4976499;28;20047;-78
2022/12/01 08:54:16;;;;;;;21.05;12.38;;;5.50;99.90;;;;;;4975361;28;20054;-78
2022/12/01 08:56:44;;;;;;;23.60;13.15;;;5.50;99.90;;;;;;4970229;28;20505;-78
2022/12/01 08:59:11;;;;;;;25.52;13.60;;;5.50;99.90;;;;;;4954646;28;20114;-80
2022/12/01 09:01:51;;;;;;;26.67;13.05;;;5.40;99.90;;;;;;4972038;28;20066;-79
2022/12/01 09:04:20;;;;;;;28.90;13.02;;;5.40;99.90;;;;;;4975272;28;20555;-80
2022/12/01 09:06:48;;;;;;;27.15;13.55;;;5.40;99.90;;;;;;4953526;28;20047;-79
2022/12/01 09:09:17;;;;;;;29.55;12.52;;;5.30;99.90;;;;;;4981849;28;20054;-78
2022/12/01 09:11:45;;;;;;;29.48;14.18;;;5.40;99.90;;;;;;4980724;28;20061;-79
2022/12/01 09:14:13;;;;;;;24.60;14.00;;;5.40;99.90;;;;;;4961132;28;20090;-79
2022/12/01 09:16:41;;;;;;;24.40;13.65;;;5.40;99.90;;;;;;4977592;28;20082;-78
2022/12/01 09:19:09;;;;;;;26.20;13.95;;;5.30;99.90;;;;;;4965450;28;20047;-78
2022/12/01 09:21:39;;;;;;;;;;;5.40;99.90;;;;;;4983229;28;20079;-78
2022/12/01 09:24:06;;;;;;;26.08;12.77;;;5.30;99.90;;;;;;4962005;28;19936;-79
2022/12/01 09:26:33;;;;;;;22.88;13.00;;;5.30;99.90;;;;;;4958216;28;20043;-78
2022/12/01 09:29:03;;;;;;;29.15;13.32;;;5.40;99.90;;;;;;4954725;28;20055;-78
2022/12/01 09:31:32;;;;;;;27.27;14.90;;;5.40;99.90;;;;;;4952462;28;20078;-78
2022/12/01 09:34:01;;;;;;;26.20;13.70;;;5.40;99.90;;;;;;4967096;28;20063;-79
2022/12/01 09:36:29;;;;;;;28.35;14.10;;;5.40;99.90;;;;;;4946777;28;20051;-78
2022/12/01 09:38:57;;;;;;;26.40;14.23;;;5.40;99.90;;;;;;4942762;28;20062;-78
2022/12/01 09:41:28;;;;;;;26.35;14.07;;;5.40;99.90;;;;;;4959200;28;20102;-79
2022/12/01 09:44:00;;;;;;;26.25;14.23;;;5.40;99.90;;;;;;4995759;28;20057;-79
2022/12/01 09:46:35;;;;;;;28.42;14.50;;;5.40;99.90;;;;;;4979758;28;20090;-79
2022/12/01 09:49:05;;;;;;;27.67;16.10;;;5.40;99.90;;;;;;4987826;28;20047;-79
2022/12/01 09:51:34;;;;;;;28.17;14.07;;;5.50;99.90;;;;;;4990388;28;20035;-79
2022/12/01 09:54:02;;;;;;;25.55;14.63;;;5.40;99.90;;;;;;4975594;28;20133;-78
2022/12/01 09:56:41;;;;;;;20.75;13.10;;;5.40;99.90;;;;;;4974805;28;20111;-78
2022/12/01 09:59:17;;;;;;;30.70;14.68;;;5.40;99.90;;;;;;4973678;28;20043;-79
2022/12/01 10:01:48;;;;;;;29.73;14.23;;;5.40;99.90;;;;;;4971418;29;20047;-78
2022/12/01 10:04:38;;;;;;;30.77;12.90;;;5.40;99.90;;;;;;4971156;29;20107;-78
2022/12/01 10:07:12;;;;;;;;;;;5.30;99.90;;;;;;4976082;28;20103;-77
2022/12/01 10:09:57;;;;;;;34.30;16.10;;;5.30;99.90;;;;;;4963945;28;19907;-78
2022/12/01 10:12:26;;;;;;;27.83;14.85;;;5.40;99.90;;;;;;4983402;28;20074;-78
2022/12/01 10:15:31;;;;;;;24.50;12.77;;;5.30;99.90;;;;;;4980019;28;20114;-78
2022/12/01 10:18:17;;;;;;;25.10;13.15;;;5.40;99.90;;;;;;4980067;28;20057;-77
2022/12/01 10:21:05;;;;;;;24.70;13.18;;;5.40;99.90;;;;;;4988800;28;20050;-79
2022/12/01 10:24:00;;;;;;;26.02;13.82;;;5.40;99.90;;;;;;4989924;28;20058;-79
2022/12/01 10:26:36;;;;;;;30.08;14.85;;;5.30;99.90;;;;;;4971410;28;20050;-78
2022/12/01 10:29:15;;;;;;;26.00;13.63;;;5.30;99.90;;;;;;4984844;28;20078;-79
2022/12/01 10:32:03;;;;;;;29.05;14.20;;;5.30;99.90;;;;;;4983034;28;20047;-78
2022/12/01 10:34:37;;;;;;;31.95;15.15;;;5.30;99.90;;;;;;4980426;28;20111;-78
2022/12/01 10:37:05;;;;;;;29.42;15.77;;;5.30;99.90;;;;;;4977412;28;20115;-77
2022/12/01 10:39:42;;;;;;;30.30;15.63;;;5.30;99.90;;;;;;4962214;28;20035;-78
2022/12/01 10:42:26;;;;;;;25.63;14.20;;;5.30;99.90;;;;;;4977083;28;20067;-80
2022/12/01 10:44:55;;;;;;;27.60;14.15;;;5.40;99.90;;;;;;4988997;28;20050;-79
2022/12/01 10:47:24;;;;;;;25.52;13.75;;;5.40;99.90;;;;;;4969269;28;20423;-78
2022/12/01 10:49:51;;;;;;;27.97;14.10;;;5.40;99.90;;;;;;4984294;28;20061;-78
2022/12/01 10:52:48;;;;;;;24.65;14.40;;;5.50;99.90;;;;;;4982252;28;20115;-78
2022/12/01 10:55:28;;;;;;;24.88;14.35;;;5.50;99.90;;;;;;4960476;28;20047;-78
2022/12/01 10:57:57;;;;;;;25.27;13.70;;;5.60;99.90;;;;;;4977887;28;20055;-78
2022/12/01 11:00:27;;;;;;;24.53;13.60;;;5.60;99.90;;;;;;4977299;28;20459;-78
2022/12/01 11:03:22;;;;;;;25.33;15.13;;;5.60;99.90;;;;;;4979839;28;20070;-78
2022/12/01 11:05:53;;;;;;;27.48;14.77;;;5.70;99.90;;;;;;4978414;28;20050;-79
2022/12/01 11:08:45;;;;;;;27.45;15.70;;;5.60;99.90;;;;;;4988231;28;20051;-79
2022/12/01 11:11:27;;;;;;;29.42;16.63;;;5.60;99.90;;;;;;4957148;28;20051;-78
2022/12/01 11:13:56;;;;;;;26.23;14.98;;;5.60;99.90;;;;;;4977115;28;20055;-79
2022/12/01 11:16:43;;;;;;;24.30;13.57;;;5.60;99.90;;;;;;4979901;28;20055;-78
2022/12/01 11:19:18;;;;;;;32.08;15.63;;;5.50;99.90;;;;;;4977704;28;20050;-79
2022/12/01 11:21:54;;;;;;;33.00;15.85;;;5.50;99.90;;;;;;4966726;28;20054;-78
2022/12/01 11:24:41;;;;;;;27.85;15.45;;;5.60;99.90;;;;;;4971622;28;20221;-78
2022/12/01 11:27:33;;;;;;;25.40;14.63;;;5.60;99.90;;;;;;4976878;28;20342;-78
2022/12/01 11:30:06;;;;;;;26.65;14.77;;;5.60;99.90;;;;;;4983575;28;20066;-78
2022/12/01 11:32:36;;;;;;;27.33;13.75;;;5.50;99.90;;;;;;4984531;28;20074;-79
2022/12/01 11:35:09;;;;;;;26.52;14.27;;;5.50;99.90;;;;;;4965973;28;20129;-78
2022/12/01 11:37:45;;;;;;;26.60;14.85;;;5.40;99.90;;;;;;4966970;28;20058;-78
2022/12/01 11:40:32;;;;;;;29.23;14.75;;;5.40;99.90;;;;;;4977669;28;20053;-78
2022/12/01 11:43:03;;;;;;;28.40;15.23;;;5.40;99.90;;;;;;4983734;28;20051;-79
2022/12/01 11:45:35;;;;;;;28.30;15.32;;;5.40;99.90;;;;;;4985697;28;20114;-78
2022/12/01 11:48:05;;;;;;;26.27;14.93;;;5.40;99.90;;;;;;4967957;28;20051;-78
2022/12/01 11:50:36;;;;;;;24.20;13.85;;;5.40;99.90;;;;;;4971438;28;20137;-78
2022/12/01 11:53:23;;;;;;;28.10;14.48;;;5.30;99.90;;;;;;4984474;28;20051;-77
2022/12/01 11:55:50;;;;;;;30.05;14.70;;;5.20;99.90;;;;;;4974080;28;20074;-78
2022/12/01 11:58:17;;;;;;;25.95;14.82;;;5.20;99.90;;;;;;4961296;28;20039;-77
2022/12/01 12:00:52;;;;;;;28.20;14.95;;;5.20;99.90;;;;;;4979250;28;20047;-79
2022/12/01 12:03:27;;;;;;;28.58;12.80;;;5.20;99.90;;;;;;4978834;28;20151;-79
2022/12/01 12:06:13;;;;;;;25.42;13.98;;;5.20;99.90;;;;;;4973382;28;20047;-77
2022/12/01 12:09:31;;;;;;;26.20;13.57;;;5.20;99.90;;;;;;4972493;28;20054;-79
2022/12/01 12:12:45;;;;;;;25.90;14.43;;;5.20;99.90;;;;;;4985370;28;20201;-78
2022/12/01 12:15:28;;;;;;;28.35;13.70;;;5.20;99.90;;;;;;4860809;29;20054;-78
2022/12/01 12:18:38;;;;;;;28.52;14.88;;;5.20;99.90;;;;;;4965951;28;20057;-79
2022/12/01 12:21:19;;;;;;;24.70;12.90;;;5.20;99.90;;;;;;4969371;28;20051;-79
2022/12/01 12:24:06;;;;;;;27.08;15.52;;;5.20;99.90;;;;;;4974903;28;20047;-79
2022/12/01 12:26:59;;;;;;;24.60;13.50;;;5.20;99.90;;;;;;4982943;28;20047;-78
2022/12/01 12:29:48;;;;;;;30.55;15.00;;;5.30;99.90;;;;;;4969950;28;20057;-78
2022/12/01 12:32:25;;;;;;;27.38;14.13;;;5.30;99.90;;;;;;4987210;28;20655;-78
2022/12/01 12:35:18;;;;;;;26.75;15.07;;;5.40;99.90;;;;;;4968904;29;20051;-78
2022/12/01 12:38:15;;;;;;;24.65;14.23;;;5.40;99.90;;;;;;4968270;29;20074;-78
2022/12/01 12:40:51;;;;;;;24.27;13.23;;;5.40;99.90;;;;;;4962883;28;20141;-78
2022/12/01 12:43:33;;;;;;;29.27;14.05;;;5.40;99.90;;;;;;4961192;28;20138;-78
2022/12/01 12:46:09;;;;;;;26.27;13.93;;;5.40;99.90;;;;;;4974093;28;20052;-78
2022/12/01 12:48:55;;;;;;;25.30;13.90;;;5.30;99.90;;;;;;4971717;28;20050;-78
2022/12/01 12:52:03;;;;;;;28.30;14.30;;;5.40;99.90;;;;;;4986778;28;20127;-78
2022/12/01 12:54:44;;;;;;;24.90;13.20;;;5.40;99.90;;;;;;4988755;28;20520;-77
2022/12/01 12:57:39;;;;;;;29.27;15.25;;;5.30;99.90;;;;;;4982363;28;20120;-77
2022/12/01 13:00:14;;;;;;;25.38;13.65;;;5.30;99.90;;;;;;4974816;28;20492;-78
2022/12/01 13:02:53;;;;;;;30.23;14.75;;;5.30;99.90;;;;;;4977667;28;20054;-77
2022/12/01 13:05:42;;;;;;;28.10;14.77;;;5.20;99.90;;;;;;4959337;28;20051;-79
2022/12/01 13:08:15;;;;;;;27.73;15.40;;;5.20;99.90;;;;;;4972724;28;20061;-78
2022/12/01 13:10:45;;;;;;;27.80;15.38;;;5.20;99.90;;;;;;4971212;28;20087;-77
2022/12/01 13:13:19;;;;;;;28.50;15.07;;;5.20;99.90;;;;;;4972282;28;20055;-78
2022/12/01 13:15:49;;;;;;;28.60;14.77;;;5.20;99.90;;;;;;4989980;28;20057;-79
2022/12/01 13:18:26;;;;;;;26.65;15.02;;;5.20;99.90;;;;;;4985857;28;20047;-79
2022/12/01 13:20:55;;;;;;;31.80;15.75;;;5.30;99.90;;;;;;4984023;28;20111;-78
2022/12/01 13:23:23;;;;;;;26.20;14.57;;;5.30;99.90;;;;;;4981887;28;20051;-77
2022/12/01 13:25:54;;;;;;;29.25;14.20;;;5.20;99.90;;;;;;4963243;28;20047;-79
2022/12/01 13:28:26;;;;;;;28.90;15.60;;;5.20;99.90;;;;;;4970069;28;20051;-79
2022/12/01 13:31:02;;;;;;;28.58;14.07;;;5.20;99.90;;;;;;4974898;28;20055;-78
2022/12/01 13:33:29;;;;;;;27.90;14.75;;;5.20;99.90;;;;;;4956545;28;20090;-78
2022/12/01 13:35:57;;;;;;;27.50;14.60;;;5.20;99.90;;;;;;4967427;28;20062;-78
2022/12/01 13:38:57;;;;;;;28.27;15.15;;;5.20;99.90;;;;;;4988014;28;20055;-78
2022/12/01 13:41:29;;;;;;;26.40;14.18;;;5.20;99.90;;;;;;4982803;28;20054;-78
2022/12/01 13:43:55;;;;;;;27.13;14.80;;;5.20;99.90;;;;;;4979725;28;20119;-77
2022/12/01 13:46:29;;;;;;;26.45;13.90;;;5.20;99.90;;;;;;4977732;28;20052;-77
2022/12/01 13:49:17;;;;;;;20.65;12.70;;;5.10;99.90;;;;;;4961112;28;20090;-78
2022/12/01 13:52:21;;;;;;;26.35;13.82;;;5.10;99.90;;;;;;4981555;28;20054;-78
2022/12/01 13:55:06;;;;;;;26.73;13.80;;;5.10;99.90;;;;;;4969249;28;20055;-78
2022/12/01 13:57:33;;;;;;;27.92;14.52;;;5.00;99.90;;;;;;4968224;28;20066;-77
2022/12/01 14:00:00;;;;;;;26.83;14.00;;;5.00;99.90;;;;;;4983488;28;20051;-78
2022/12/01 14:02:34;;;;;;;29.23;14.65;;;5.00;99.90;;;;;;4977575;28;20493;-79
2022/12/01 14:05:34;;;;;;;29.20;14.45;;;5.00;99.90;;;;;;4980843;28;20089;-78
2022/12/01 14:08:22;;;;;;;28.58;14.23;;;5.00;99.90;;;;;;4927721;28;20055;-78
2022/12/01 14:10:56;;;;;;;24.65;13.60;;;5.00;99.90;;;;;;4979700;28;20078;-78
2022/12/01 14:13:24;;;;;;;23.33;12.77;;;5.00;99.90;;;;;;4972084;28;20390;-78
2022/12/01 14:16:00;;;;;;;23.17;14.20;;;4.90;99.90;;;;;;4969012;28;20492;-78
2022/12/01 14:18:49;;;;;;;27.02;14.55;;;5.00;99.90;;;;;;4979975;28;20101;-78
2022/12/01 14:21:36;;;;;;;25.15;12.68;;;4.90;99.90;;;;;;4983095;28;20061;-78
2022/12/01 14:24:05;;;;;;;26.85;13.70;;;4.90;99.90;;;;;;4979008;28;20046;-78
2022/12/01 14:26:43;;;;;;;25.27;13.15;;;4.80;99.90;;;;;;4978150;28;20073;-78
2022/12/01 14:29:26;;;;;;;22.33;11.60;;;4.80;99.90;;;;;;4966263;28;20047;-78
2022/12/01 14:31:52;;;;;;;21.33;12.35;;;4.80;99.90;;;;;;4973417;28;20063;-78
2022/12/01 14:34:25;;;;;;;31.73;14.23;;;4.80;99.90;;;;;;4971542;28;20059;-78
2022/12/01 14:37:24;;;;;;;23.90;13.13;;;4.80;99.90;;;;;;4950660;28;20062;-77
2022/12/01 14:39:57;;;;;;;26.73;14.18;;;4.70;99.90;;;;;;4957886;28;20055;-78
2022/12/01 14:45:25;;;;;;;22.90;12.98;;;4.80;99.90;;;;;;4970940;28;20483;-77
2022/12/01 14:48:08;;;;;;;26.08;14.07;;;4.80;99.90;;;;;;4973972;28;20065;-78
2022/12/01 14:50:50;;;;;;;27.58;12.80;;;4.80;99.90;;;;;;4975539;28;20386;-77
2022/12/01 14:53:28;;;;;;;20.25;11.68;;;4.80;99.90;;;;;;4978918;28;20097;-78
2022/12/01 14:56:09;;;;;;;23.13;11.18;;;4.80;99.90;;;;;;4972957;28;20138;-77
2022/12/01 14:58:36;;;;;;;29.73;14.90;;;4.70;99.90;;;;;;4954383;28;20139;-78
2022/12/01 15:01:10;;;;;;;26.48;13.48;;;4.60;99.90;;;;;;4982989;28;20042;-77
2022/12/01 15:03:41;;;;;;;26.65;14.02;;;4.60;99.90;;;;;;4968837;28;20079;-78
2022/12/01 15:06:09;;;;;;;27.50;14.35;;;4.60;99.90;;;;;;4953784;28;20118;-78
2022/12/01 15:08:37;;;;;;;26.00;14.63;;;4.60;99.90;;;;;;4973047;28;20054;-78
2022/12/01 15:11:25;;;;;;;33.17;16.23;;;4.60;99.90;;;;;;4956886;28;20109;-78
2022/12/01 15:13:55;;;;;;;27.73;13.57;;;4.60;99.90;;;;;;4972394;28;20051;-77
2022/12/01 15:16:29;;;;;;;26.13;14.23;;;4.50;99.90;;;;;;4969863;28;20469;-78
2022/12/01 15:18:56;;;;;;;29.70;14.85;;;4.50;99.90;;;;;;4964177;28;20057;-77
2022/12/01 15:21:27;;;;;;;27.00;15.23;;;4.50;99.90;;;;;;4983630;28;20062;-78
2022/12/01 15:24:18;;;;;;;30.77;13.18;;;4.50;99.90;;;;;;4967420;28;20057;-77
2022/12/01 15:26:47;;;;;;;28.50;15.93;;;4.50;99.90;;;;;;4973248;28;20054;-77
2022/12/01 15:29:14;;;;;;;29.17;15.30;;;4.50;99.90;;;;;;4958139;28;20119;-77
2022/12/01 15:31:43;;;;;;;28.35;14.98;;;4.50;99.90;;;;;;4976014;28;20496;-78
2022/12/01 15:34:18;;;;;;;22.37;12.40;;;4.50;99.90;;;;;;4977885;28;20114;-78
2022/12/01 15:36:45;;;;;;;28.55;15.07;;;4.50;99.90;;;;;;4984844;28;20058;-77
2022/12/01 15:39:19;;;;;;;28.15;15.15;;;4.50;99.90;;;;;;4967099;28;20114;-78
2022/12/01 15:41:52;;;;;;;29.73;14.02;;;4.50;99.90;;;;;;4951257;28;20062;-78
2022/12/01 15:44:29;;;;;;;31.63;15.35;;;4.50;99.90;;;;;;4969686;28;20488;-78
2022/12/01 15:46:56;;;;;;;30.00;16.38;;;4.50;99.90;;;;;;4972366;28;20053;-79
2022/12/01 15:49:31;;;;;;;31.17;17.02;;;4.50;99.90;;;;;;4957116;28;20047;-78
2022/12/01 15:52:11;;;;;;;27.95;16.40;;;4.50;99.90;;;;;;4961991;28;20111;-78
2022/12/01 15:54:38;;;;;;;29.08;15.63;;;4.50;99.90;;;;;;4979632;28;20463;-78
2022/12/01 15:57:05;;;;;;;28.33;15.38;;;4.60;99.90;;;;;;4980961;28;20119;-77
2022/12/01 15:59:37;;;;;;;29.58;15.43;;;4.50;99.90;;;;;;4970740;28;20050;-78
2022/12/01 16:02:26;;;;;;;29.05;16.27;;;4.50;99.90;;;;;;4973138;28;20054;-78
2022/12/01 16:05:05;;;;;;;31.60;17.02;;;4.60;99.90;;;;;;4972048;28;20071;-79
2022/12/01 16:07:35;;;;;;;32.83;14.75;;;4.60;99.90;;;;;;4970640;28;20051;-78
2022/12/01 16:10:27;;;;;;;30.27;15.73;;;4.60;99.90;;;;;;4979180;28;20094;-78
2022/12/01 16:13:33;;;;;;;30.05;15.65;;;4.50;99.90;;;;;;4959269;28;20489;-79
2022/12/01 16:16:38;;;;;;;31.70;16.23;;;4.50;99.90;;;;;;4968359;29;20419;-77
2022/12/01 16:19:08;;;;;;;30.98;16.88;;;4.50;99.90;;;;;;4969966;28;20047;-79
2022/12/01 16:21:48;;;;;;;34.47;19.17;;;4.50;99.90;;;;;;4955173;28;20051;-78
2022/12/01 16:24:21;;;;;;;32.90;17.25;;;4.50;99.90;;;;;;4970021;28;20095;-78
2022/12/01 16:27:14;;;;;;;31.02;16.88;;;4.50;99.90;;;;;;4970343;28;20624;-78
2022/12/01 16:29:52;;;;;;;32.47;17.00;;;4.60;99.90;;;;;;4964131;28;20051;-79
2022/12/01 16:32:30;;;;;;;30.98;16.58;;;4.50;99.90;;;;;;4974438;28;20150;-79
2022/12/01 16:34:56;;;;;;;32.42;17.00;;;4.50;99.90;;;;;;4980226;28;20110;-78
2022/12/01 16:37:24;;;;;;;35.42;19.30;;;4.60;99.90;;;;;;4976478;28;20061;-79
2022/12/01 16:39:51;;;;;;;40.22;21.98;;;4.60;99.90;;;;;;4973374;28;20057;-78
2022/12/01 16:42:20;;;;;;;34.35;17.38;;;4.70;99.90;;;;;;4967082;28;20134;-78
2022/12/01 16:44:48;;;;;;;36.30;17.88;;;4.70;99.90;;;;;;4953418;28;20051;-77
2022/12/01 16:47:21;;;;;;;34.38;16.40;;;4.70;99.90;;;;;;4966950;28;20035;-78
2022/12/01 16:49:49;;;;;;;37.83;16.42;;;4.80;99.90;;;;;;4971287;29;20061;-76
2022/12/01 16:52:17;;;;;;;31.48;17.08;;;4.80;99.90;;;;;;4959428;29;20101;-78
2022/12/01 16:55:04;;;;;;;33.60;16.40;;;4.80;99.90;;;;;;4979755;28;20082;-78
2022/12/01 16:57:30;;;;;;;28.38;15.63;;;4.80;99.90;;;;;;4969643;28;20070;-78
2022/12/01 16:59:57;;;;;;;30.50;17.55;;;4.80;99.90;;;;;;4972575;29;20051;-77
2022/12/01 17:02:24;;;;;;;35.45;18.23;;;4.80;99.90;;;;;;4971708;29;20051;-79
2022/12/01 17:04:50;;;;;;;34.88;16.33;;;4.80;99.90;;;;;;4980445;28;20089;-78
2022/12/01 17:07:17;;;;;;;32.40;17.67;;;4.70;99.90;;;;;;4973914;28;20058;-78
2022/12/01 17:09:44;;;;;;;32.97;17.95;;;4.70;99.90;;;;;;4986604;28;20070;-78
2022/12/01 17:12:11;;;;;;;29.10;17.45;;;4.70;99.90;;;;;;4971715;28;20118;-77
2022/12/01 17:14:37;;;;;;;37.90;18.30;;;4.70;99.90;;;;;;4976034;28;20062;-77
2022/12/01 17:17:04;;;;;;;43.17;20.67;;;4.70;99.90;;;;;;4971232;28;20122;-78
2022/12/01 17:19:31;;;;;;;39.88;18.73;;;4.70;99.90;;;;;;4978979;28;20059;-78
2022/12/01 17:21:57;;;;;;;33.35;16.95;;;4.60;99.90;;;;;;4964729;28;20074;-78
2022/12/01 17:24:24;;;;;;;31.77;17.60;;;4.60;99.90;;;;;;4960840;28;20042;-77
2022/12/01 17:26:51;;;;;;;30.65;16.95;;;4.60;99.90;;;;;;4976176;28;20074;-79
2022/12/01 17:29:18;;;;;;;29.67;17.20;;;4.50;99.90;;;;;;4982219;28;20106;-79
2022/12/01 17:31:44;;;;;;;30.58;16.95;;;4.50;99.90;;;;;;4987887;28;20050;-77
2022/12/01 17:34:11;;;;;;;32.30;17.25;;;4.50;99.90;;;;;;4972933;28;20055;-78
2022/12/01 17:36:38;;;;;;;36.22;16.90;;;4.50;99.90;;;;;;4980297;28;20061;-78
2022/12/01 17:39:05;;;;;;;31.15;16.73;;;4.50;99.90;;;;;;4988383;28;20074;-79
2022/12/01 17:41:34;;;;;;;31.98;15.98;;;4.50;99.90;;;;;;4968943;28;20119;-79
2022/12/01 17:44:03;;;;;;;31.10;16.60;;;4.50;99.90;;;;;;4963902;28;20040;-79
2022/12/01 17:46:30;;;;;;;33.78;18.02;;;4.50;99.90;;;;;;4977044;28;20500;-79
2022/12/01 17:48:58;;;;;;;32.78;16.80;;;4.50;99.90;;;;;;4984853;28;20071;-80
2022/12/01 17:51:25;;;;;;;31.98;17.02;;;4.50;99.90;;;;;;4978347;28;20142;-80
2022/12/01 17:53:52;;;;;;;34.33;18.55;;;4.50;99.90;;;;;;4992478;28;20037;-80
2022/12/01 17:56:19;;;;;;;30.50;17.15;;;4.50;99.90;;;;;;4987729;28;20045;-80
2022/12/01 17:58:49;;;;;;;34.42;19.15;;;4.50;99.90;;;;;;4976219;28;20086;-80
2022/12/01 18:01:18;;;;;;;40.67;19.13;;;4.50;99.90;;;;;;4988900;28;20046;-79
2022/12/01 18:03:46;;;;;;;36.28;18.40;;;4.50;99.90;;;;;;4987791;28;20051;-80
2022/12/01 18:06:13;;;;;;;29.80;17.95;;;4.40;99.90;;;;;;4982053;28;20037;-80
2022/12/01 18:08:40;;;;;;;33.40;17.92;;;4.40;99.90;;;;;;4964801;28;20058;-80
2022/12/01 18:11:10;;;;;;;34.17;18.17;;;4.40;99.90;;;;;;4985193;28;20049;-80
2022/12/01 18:13:42;;;;;;;31.45;17.48;;;4.40;99.90;;;;;;4981624;28;20035;-80
2022/12/01 18:16:13;;;;;;;31.65;16.55;;;4.40;99.90;;;;;;4987596;28;20075;-80
2022/12/01 18:18:40;;;;;;;32.97;18.00;;;4.40;99.90;;;;;;4984913;28;20138;-79
2022/12/01 18:21:09;;;;;;;37.42;18.30;;;4.40;99.90;;;;;;4983849;28;20031;-79
2022/12/01 18:23:36;;;;;;;37.25;18.00;;;4.40;99.90;;;;;;4960028;28;20051;-79
2022/12/01 18:26:08;;;;;;;30.80;17.52;;;4.40;99.90;;;;;;4973961;28;20062;-79
2022/12/01 18:28:41;;;;;;;32.45;17.40;;;4.40;99.90;;;;;;4968014;28;20049;-78
2022/12/01 18:31:13;;;;;;;35.47;18.50;;;4.40;99.90;;;;;;4970567;28;20047;-79
2022/12/01 18:33:42;;;;;;;32.80;17.95;;;4.40;99.90;;;;;;4965921;28;20051;-79
2022/12/01 18:36:17;;;;;;;33.90;18.25;;;4.40;99.90;;;;;;4966668;28;20062;-79
2022/12/01 18:38:46;;;;;;;30.42;17.27;;;4.40;99.90;;;;;;4983418;28;20118;-78
2022/12/01 18:41:13;;;;;;;32.45;17.48;;;4.40;99.90;;;;;;4969896;28;20051;-79
2022/12/01 18:43:40;;;;;;;32.80;17.77;;;4.40;99.90;;;;;;4969851;28;20050;-78
2022/12/01 18:46:07;;;;;;;34.63;18.17;;;4.40;99.90;;;;;;4977075;28;20047;-78
2022/12/01 18:48:34;;;;;;;37.28;19.13;;;4.40;99.90;;;;;;4970289;28;20050;-78
2022/12/01 18:51:03;;;;;;;34.17;17.70;;;4.40;99.90;;;;;;4972472;28;20057;-79
2022/12/01 18:53:31;;;;;;;33.20;17.92;;;4.40;99.90;;;;;;4974117;28;20058;-79
2022/12/01 18:56:02;;;;;;;30.75;18.02;;;4.40;99.90;;;;;;4987234;28;20057;-79
2022/12/01 18:58:30;;;;;;;36.13;17.73;;;4.40;99.90;;;;;;4971396;28;20042;-78
2022/12/01 19:00:58;;;;;;;31.25;17.58;;;4.30;99.90;;;;;;4981304;28;20054;-78
2022/12/01 19:03:27;;;;;;;33.38;19.08;;;4.40;99.90;;;;;;4969354;28;20065;-78
2022/12/01 19:05:53;;;;;;;34.75;18.38;;;4.40;99.90;;;;;;4976949;28;20078;-78
2022/12/01 19:08:21;;;;;;;36.50;18.42;;;4.40;99.90;;;;;;4969144;28;20055;-78
2022/12/01 19:10:59;;;;;;;35.58;18.23;;;4.40;99.90;;;;;;4970390;28;20047;-78
2022/12/01 19:13:26;;;;;;;34.78;18.15;;;4.40;99.90;;;;;;4973816;28;20058;-78
2022/12/01 19:15:53;;;;;;;32.30;18.88;;;4.40;99.90;;;;;;4982231;28;20407;-78
2022/12/01 19:18:20;;;;;;;36.03;18.63;;;4.40;99.90;;;;;;4969000;28;20109;-79
2022/12/01 19:20:47;;;;;;;38.45;18.33;;;4.40;99.90;;;;;;4981901;28;20047;-79
2022/12/01 19:23:14;;;;;;;38.17;18.00;;;4.40;99.90;;;;;;4980251;28;20065;-79
2022/12/01 19:25:40;;;;;;;31.42;16.80;;;4.40;99.90;;;;;;4966082;28;20051;-80
2022/12/01 19:28:07;;;;;;;34.42;19.30;;;4.40;99.90;;;;;;4964377;28;20047;-79
2022/12/01 19:30:34;;;;;;;39.85;19.48;;;4.40;99.90;;;;;;4964924;29;20043;-78
2022/12/01 19:33:00;;;;;;;35.00;17.40;;;4.40;99.90;;;;;;4982443;28;20050;-79
2022/12/01 19:35:27;;;;;;;34.92;19.70;;;4.40;99.90;;;;;;4961931;28;20079;-78
2022/12/01 19:37:54;;;;;;;33.67;17.92;;;4.40;99.90;;;;;;4967158;28;20066;-78
2022/12/01 19:40:20;;;;;;;36.92;18.70;;;4.40;99.90;;;;;;4951853;28;20078;-78
2022/12/01 19:42:47;;;;;;;33.13;18.00;;;4.40;99.90;;;;;;4954044;28;20054;-78
2022/12/01 19:45:14;;;;;;;35.55;18.27;;;4.40;99.90;;;;;;4955063;28;20062;-78
2022/12/01 19:47:40;;;;;;;33.60;18.00;;;4.40;99.90;;;;;;4974488;28;20070;-78
2022/12/01 19:50:08;;;;;;;35.88;19.05;;;4.50;99.90;;;;;;4976587;28;20047;-78
2022/12/01 19:52:36;;;;;;;39.85;19.83;;;4.50;99.90;;;;;;4977501;28;20055;-78
2022/12/01 19:55:04;;;;;;;36.47;18.08;;;4.50;99.90;;;;;;4980139;28;20054;-77
2022/12/01 19:57:31;;;;;;;38.75;19.38;;;4.50;99.90;;;;;;4964601;28;20055;-78
2022/12/01 19:59:58;;;;;;;37.83;19.13;;;4.40;99.90;;;;;;4981984;28;20051;-78
2022/12/01 20:02:24;;;;;;;37.85;19.20;;;4.40;99.90;;;;;;4967442;28;20075;-78
2022/12/01 20:04:55;;;;;;;;;;;4.40;99.90;;;;;;4983589;28;20051;-78
2022/12/01 20:07:22;;;;;;;38.38;19.23;;;4.40;99.90;;;;;;4975264;28;19932;-79
2022/12/01 20:09:48;;;;;;;37.38;19.45;;;4.50;99.90;;;;;;4953673;28;20053;-78
2022/12/01 20:12:16;;;;;;;34.03;18.42;;;4.50;99.90;;;;;;4972213;28;20114;-80
2022/12/01 20:14:43;;;;;;;34.35;17.98;;;4.50;99.90;;;;;;4951020;29;20051;-78
2022/12/01 20:17:09;;;;;;;35.08;18.65;;;4.40;99.90;;;;;;4966304;28;20138;-79
2022/12/01 20:19:41;;;;;;;38.10;18.73;;;4.40;99.90;;;;;;4980026;28;20111;-79